sensor_id;sensor_type;location;lat;lon;timestamp;temperature;humidity
19516;DHT22;9901;47.448;7.692;2022-10-16T09:48:20;21.40;99.90
19516;DHT22;9901;47.448;7.692;2022-10-16T09:50:59;21.60;99.90
19516;DHT22;9901;47.448;7.692;2022-10-16T09:53:41;21.90;99.90
19516;DHT22;9901;47.448;7.692;2022-10-16T09:56:21;22.30;99.90
19516;DHT22;9901;47.448;7.692;2022-10-16T10:02:01;22.80;99.90
19516;DHT22;9901;47.448;7.692;2022-10-16T10:04:46;23.30;99.90
19516;DHT22;9901;47.448;7.692;2022-10-16T10:07:24;23.40;99.90
19516;DHT22;9901;47.448;7.692;2022-10-16T10:09:52;23.60;99.90
19516;DHT22;9901;47.448;7.692;2022-10-16T10:12:26;23.70;99.90
19516;DHT22;9901;47.448;7.692;2022-10-16T10:14:55;23.90;99.90
19516;DHT22;9901;47.448;7.692;2022-10-16T10:17:33;24.10;99.90
19516;DHT22;9901;47.448;7.692;2022-10-16T10:20:28;24.30;99.90
19516;DHT22;9901;47.448;7.692;2022-10-16T10:22:55;24.50;99.90
19516;DHT22;9901;47.448;7.692;2022-10-16T10:26:02;24.60;99.90
19516;DHT22;9901;47.448;7.692;2022-10-16T10:28:46;24.80;99.90
19516;DHT22;9901;47.448;7.692;2022-10-16T10:34:35;25.10;99.90
19516;DHT22;9901;47.448;7.692;2022-10-16T10:37:22;25.20;99.90
19516;DHT22;9901;47.448;7.692;2022-10-16T10:43:06;25.10;99.90
19516;DHT22;9901;47.448;7.692;2022-10-16T10:45:43;25.20;99.90
19516;DHT22;9901;47.448;7.692;2022-10-16T10:50:56;25.40;99.90
19516;DHT22;9901;47.448;7.692;2022-10-16T10:54:12;25.30;99.90
19516;DHT22;9901;47.448;7.692;2022-10-16T11:11:01;25.80;99.90
19516;DHT22;9901;47.448;7.692;2022-10-16T11:16:18;26.00;99.90
19516;DHT22;9901;47.448;7.692;2022-10-16T11:22:29;26.00;99.90
19516;DHT22;9901;47.448;7.692;2022-10-16T11:30:30;26.10;99.90
19516;DHT22;9901;47.448;7.692;2022-10-16T11:41:55;25.90;99.90
19516;DHT22;9901;47.448;7.692;2022-10-16T11:44:48;25.90;99.90
19516;DHT22;9901;47.448;7.692;2022-10-16T11:50:06;25.50;99.90
19516;DHT22;9901;47.448;7.692;2022-10-16T11:55:21;25.60;99.90
19516;DHT22;9901;47.448;7.692;2022-10-16T11:57:57;25.60;99.90
19516;DHT22;9901;47.448;7.692;2022-10-16T12:00:46;25.50;99.90
19516;DHT22;9901;47.448;7.692;2022-10-16T12:03:40;25.60;99.90
19516;DHT22;9901;47.448;7.692;2022-10-16T12:09:37;25.60;99.90
19516;DHT22;9901;47.448;7.692;2022-10-16T12:12:04;25.60;99.90
19516;DHT22;9901;47.448;7.692;2022-10-16T12:14:38;25.90;99.90
19516;DHT22;9901;47.448;7.692;2022-10-16T12:17:27;26.00;99.90
19516;DHT22;9901;47.448;7.692;2022-10-16T12:20:00;26.10;99.90
19516;DHT22;9901;47.448;7.692;2022-10-16T12:22:28;26.00;99.90
19516;DHT22;9901;47.448;7.692;2022-10-16T12:24:55;26.00;99.90
19516;DHT22;9901;47.448;7.692;2022-10-16T12:29:57;26.10;99.90
19516;DHT22;9901;47.448;7.692;2022-10-16T12:32:37;26.10;99.90
19516;DHT22;9901;47.448;7.692;2022-10-16T12:35:06;26.10;99.90
19516;DHT22;9901;47.448;7.692;2022-10-16T12:37:42;26.10;99.90
19516;DHT22;9901;47.448;7.692;2022-10-16T12:40:31;26.10;99.90
19516;DHT22;9901;47.448;7.692;2022-10-16T12:42:58;26.30;99.90
19516;DHT22;9901;47.448;7.692;2022-10-16T12:45:30;26.40;99.90
19516;DHT22;9901;47.448;7.692;2022-10-16T12:47:58;26.40;99.90
19516;DHT22;9901;47.448;7.692;2022-10-16T12:50:34;26.50;99.90
19516;DHT22;9901;47.448;7.692;2022-10-16T12:53:02;26.40;99.90
19516;DHT22;9901;47.448;7.692;2022-10-16T12:55:34;26.40;99.90
19516;DHT22;9901;47.448;7.692;2022-10-16T12:58:26;26.20;99.90
19516;DHT22;9901;47.448;7.692;2022-10-16T13:00:58;26.40;99.90
19516;DHT22;9901;47.448;7.692;2022-10-16T13:22:51;25.80;99.90
19516;DHT22;9901;47.448;7.692;2022-10-16T13:25:35;26.00;99.90
19516;DHT22;9901;47.448;7.692;2022-10-16T13:28:07;26.10;99.90
19516;DHT22;9901;47.448;7.692;2022-10-16T13:33:41;25.80;99.90
19516;DHT22;9901;47.448;7.692;2022-10-16T13:36:20;25.70;99.90
19516;DHT22;9901;47.448;7.692;2022-10-16T13:38:46;25.60;99.90
19516;DHT22;9901;47.448;7.692;2022-10-16T13:41:18;25.60;99.90
19516;DHT22;9901;47.448;7.692;2022-10-16T13:43:48;25.60;99.90
19516;DHT22;9901;47.448;7.692;2022-10-16T13:46:20;25.40;99.90
19516;DHT22;9901;47.448;7.692;2022-10-16T13:49:10;25.50;99.90
19516;DHT22;9901;47.448;7.692;2022-10-16T13:54:03;25.30;99.90
19516;DHT22;9901;47.448;7.692;2022-10-16T13:56:31;25.30;99.90
19516;DHT22;9901;47.448;7.692;2022-10-16T13:59:04;25.20;99.90
19516;DHT22;9901;47.448;7.692;2022-10-16T14:01:33;25.10;99.90
19516;DHT22;9901;47.448;7.692;2022-10-16T14:04:08;25.10;99.90
19516;DHT22;9901;47.448;7.692;2022-10-16T14:06:36;25.00;99.90
19516;DHT22;9901;47.448;7.692;2022-10-16T14:09:05;24.90;99.90
19516;DHT22;9901;47.448;7.692;2022-10-16T14:11:33;24.80;99.90
19516;DHT22;9901;47.448;7.692;2022-10-16T14:14:00;24.80;99.90
19516;DHT22;9901;47.448;7.692;2022-10-16T14:16:29;24.70;99.90
19516;DHT22;9901;47.448;7.692;2022-10-16T14:18:59;24.70;99.90
19516;DHT22;9901;47.448;7.692;2022-10-16T14:21:25;24.60;99.90
19516;DHT22;9901;47.448;7.692;2022-10-16T14:23:52;24.50;99.90
19516;DHT22;9901;47.448;7.692;2022-10-16T14:26:21;24.40;99.90
19516;DHT22;9901;47.448;7.692;2022-10-16T14:28:48;24.40;99.90
19516;DHT22;9901;47.448;7.692;2022-10-16T14:31:27;24.30;99.90
19516;DHT22;9901;47.448;7.692;2022-10-16T14:33:53;24.30;99.90
19516;DHT22;9901;47.448;7.692;2022-10-16T14:36:20;24.10;99.90
19516;DHT22;9901;47.448;7.692;2022-10-16T14:41:29;24.10;99.90
19516;DHT22;9901;47.448;7.692;2022-10-16T14:44:02;24.00;99.90
19516;DHT22;9901;47.448;7.692;2022-10-16T14:46:36;24.00;99.90
19516;DHT22;9901;47.448;7.692;2022-10-16T14:51:35;23.50;99.90
19516;DHT22;9901;47.448;7.692;2022-10-16T14:54:01;23.60;99.90
19516;DHT22;9901;47.448;7.692;2022-10-16T14:59:58;23.50;99.90
19516;DHT22;9901;47.448;7.692;2022-10-16T15:01:59;23.50;99.90
19516;DHT22;9901;47.448;7.692;2022-10-16T15:04:26;23.50;99.90
19516;DHT22;9901;47.448;7.692;2022-10-16T15:09:18;23.50;99.90
19516;DHT22;9901;47.448;7.692;2022-10-16T15:11:43;23.50;99.90
19516;DHT22;9901;47.448;7.692;2022-10-16T15:14:12;23.40;99.90
19516;DHT22;9901;47.448;7.692;2022-10-16T15:16:39;23.40;99.90
19516;DHT22;9901;47.448;7.692;2022-10-16T15:19:13;23.40;99.90
19516;DHT22;9901;47.448;7.692;2022-10-16T15:21:39;23.30;99.90
19516;DHT22;9901;47.448;7.692;2022-10-16T15:24:10;23.30;99.90
19516;DHT22;9901;47.448;7.692;2022-10-16T15:26:36;23.40;99.90
19516;DHT22;9901;47.448;7.692;2022-10-16T15:29:02;23.40;99.90
19516;DHT22;9901;47.448;7.692;2022-10-16T15:31:28;23.40;99.90
19516;DHT22;9901;47.448;7.692;2022-10-16T15:33:54;23.30;99.90
19516;DHT22;9901;47.448;7.692;2022-10-16T15:36:28;23.50;99.90
19516;DHT22;9901;47.448;7.692;2022-10-16T15:38:54;23.30;99.90
19516;DHT22;9901;47.448;7.692;2022-10-16T15:41:21;23.10;99.90
19516;DHT22;9901;47.448;7.692;2022-10-16T15:43:53;23.00;99.90
19516;DHT22;9901;47.448;7.692;2022-10-16T15:46:23;23.00;99.90
19516;DHT22;9901;47.448;7.692;2022-10-16T15:48:50;22.90;99.90
19516;DHT22;9901;47.448;7.692;2022-10-16T15:51:16;22.80;99.90
19516;DHT22;9901;47.448;7.692;2022-10-16T15:53:43;22.70;99.90
19516;DHT22;9901;47.448;7.692;2022-10-16T15:56:17;22.60;99.90
19516;DHT22;9901;47.448;7.692;2022-10-16T15:58:43;22.50;99.90
19516;DHT22;9901;47.448;7.692;2022-10-16T16:01:10;22.40;99.90
19516;DHT22;9901;47.448;7.692;2022-10-16T16:03:37;22.20;99.90
19516;DHT22;9901;47.448;7.692;2022-10-16T16:06:08;22.10;99.90
19516;DHT22;9901;47.448;7.692;2022-10-16T16:08:35;21.90;99.90
19516;DHT22;9901;47.448;7.692;2022-10-16T16:11:08;21.80;99.90
19516;DHT22;9901;47.448;7.692;2022-10-16T16:13:41;21.60;99.90
19516;DHT22;9901;47.448;7.692;2022-10-16T16:16:22;21.50;99.90
19516;DHT22;9901;47.448;7.692;2022-10-16T16:18:57;21.30;99.90
19516;DHT22;9901;47.448;7.692;2022-10-16T16:21:24;21.10;99.90
19516;DHT22;9901;47.448;7.692;2022-10-16T16:24:06;20.80;99.90
19516;DHT22;9901;47.448;7.692;2022-10-16T16:26:44;20.70;99.90
19516;DHT22;9901;47.448;7.692;2022-10-16T16:29:15;20.60;99.90
19516;DHT22;9901;47.448;7.692;2022-10-16T16:31:42;20.40;99.90
19516;DHT22;9901;47.448;7.692;2022-10-16T16:34:24;20.30;99.90
19516;DHT22;9901;47.448;7.692;2022-10-16T16:36:50;20.20;99.90
19516;DHT22;9901;47.448;7.692;2022-10-16T16:39:19;20.20;99.90
19516;DHT22;9901;47.448;7.692;2022-10-16T16:41:45;20.10;99.90
19516;DHT22;9901;47.448;7.692;2022-10-16T16:44:11;20.00;99.90
19516;DHT22;9901;47.448;7.692;2022-10-16T16:46:38;19.90;99.90
19516;DHT22;9901;47.448;7.692;2022-10-16T16:49:06;19.90;99.90
19516;DHT22;9901;47.448;7.692;2022-10-16T16:56:28;19.60;99.90
19516;DHT22;9901;47.448;7.692;2022-10-16T16:58:55;19.50;99.90
19516;DHT22;9901;47.448;7.692;2022-10-16T17:01:23;19.60;99.90
19516;DHT22;9901;47.448;7.692;2022-10-16T17:03:52;19.50;99.90
19516;DHT22;9901;47.448;7.692;2022-10-16T17:06:23;19.50;99.90
19516;DHT22;9901;47.448;7.692;2022-10-16T17:11:22;19.20;99.90
19516;DHT22;9901;47.448;7.692;2022-10-16T17:13:49;19.20;99.90
19516;DHT22;9901;47.448;7.692;2022-10-16T17:16:16;19.10;99.90
19516;DHT22;9901;47.448;7.692;2022-10-16T17:21:14;18.90;99.90
19516;DHT22;9901;47.448;7.692;2022-10-16T17:23:39;18.80;99.90
19516;DHT22;9901;47.448;7.692;2022-10-16T17:26:19;18.80;99.90
19516;DHT22;9901;47.448;7.692;2022-10-16T17:28:45;18.70;99.90
19516;DHT22;9901;47.448;7.692;2022-10-16T17:31:16;18.60;99.90
19516;DHT22;9901;47.448;7.692;2022-10-16T17:33:43;18.60;99.90
19516;DHT22;9901;47.448;7.692;2022-10-16T17:36:09;18.60;99.90
19516;DHT22;9901;47.448;7.692;2022-10-16T17:38:35;18.50;99.90
19516;DHT22;9901;47.448;7.692;2022-10-16T17:41:18;18.50;99.90
19516;DHT22;9901;47.448;7.692;2022-10-16T17:43:45;18.50;99.90
19516;DHT22;9901;47.448;7.692;2022-10-16T17:46:13;18.40;99.90
19516;DHT22;9901;47.448;7.692;2022-10-16T17:48:44;18.30;99.90
19516;DHT22;9901;47.448;7.692;2022-10-16T17:51:12;18.30;99.90
19516;DHT22;9901;47.448;7.692;2022-10-16T17:53:39;18.20;99.90
19516;DHT22;9901;47.448;7.692;2022-10-16T17:56:10;18.10;99.90
19516;DHT22;9901;47.448;7.692;2022-10-16T17:58:36;18.10;99.90
19516;DHT22;9901;47.448;7.692;2022-10-16T18:01:13;18.10;99.90
19516;DHT22;9901;47.448;7.692;2022-10-16T18:03:39;18.10;99.90
19516;DHT22;9901;47.448;7.692;2022-10-16T18:06:05;18.10;99.90
19516;DHT22;9901;47.448;7.692;2022-10-16T18:08:32;18.00;99.90
19516;DHT22;9901;47.448;7.692;2022-10-16T18:11:03;17.90;99.90
19516;DHT22;9901;47.448;7.692;2022-10-16T18:13:38;17.90;99.90
19516;DHT22;9901;47.448;7.692;2022-10-16T18:16:07;18.00;99.90
19516;DHT22;9901;47.448;7.692;2022-10-16T18:18:36;17.90;99.90
19516;DHT22;9901;47.448;7.692;2022-10-16T18:21:05;17.80;99.90
19516;DHT22;9901;47.448;7.692;2022-10-16T18:23:33;17.80;99.90
19516;DHT22;9901;47.448;7.692;2022-10-16T18:26:09;17.80;99.90
19516;DHT22;9901;47.448;7.692;2022-10-16T18:28:35;17.80;99.90
19516;DHT22;9901;47.448;7.692;2022-10-16T18:31:10;17.70;99.90
19516;DHT22;9901;47.448;7.692;2022-10-16T18:33:36;17.80;99.90
19516;DHT22;9901;47.448;7.692;2022-10-16T18:36:08;17.80;99.90
19516;DHT22;9901;47.448;7.692;2022-10-16T18:38:35;17.80;99.90
19516;DHT22;9901;47.448;7.692;2022-10-16T18:41:01;17.80;99.90
19516;DHT22;9901;47.448;7.692;2022-10-16T18:43:51;17.80;99.90
19516;DHT22;9901;47.448;7.692;2022-10-16T18:46:34;17.80;99.90
19516;DHT22;9901;47.448;7.692;2022-10-16T18:49:01;17.70;99.90
19516;DHT22;9901;47.448;7.692;2022-10-16T18:51:34;17.70;99.90
19516;DHT22;9901;47.448;7.692;2022-10-16T18:54:02;17.70;99.90
19516;DHT22;9901;47.448;7.692;2022-10-16T18:56:31;17.70;99.90
19516;DHT22;9901;47.448;7.692;2022-10-16T18:59:07;17.60;99.90
19516;DHT22;9901;47.448;7.692;2022-10-16T19:01:36;17.70;99.90
19516;DHT22;9901;47.448;7.692;2022-10-16T19:04:11;17.60;99.90
19516;DHT22;9901;47.448;7.692;2022-10-16T19:06:39;17.70;99.90
19516;DHT22;9901;47.448;7.692;2022-10-16T19:09:06;17.80;99.90
19516;DHT22;9901;47.448;7.692;2022-10-16T19:11:33;17.80;99.90
19516;DHT22;9901;47.448;7.692;2022-10-16T19:13:59;17.70;99.90
19516;DHT22;9901;47.448;7.692;2022-10-16T19:16:27;17.70;99.90
19516;DHT22;9901;47.448;7.692;2022-10-16T19:19:00;17.60;99.90
19516;DHT22;9901;47.448;7.692;2022-10-16T19:21:27;17.50;99.90
19516;DHT22;9901;47.448;7.692;2022-10-16T19:24:00;17.30;99.90
19516;DHT22;9901;47.448;7.692;2022-10-16T19:26:28;17.40;99.90
19516;DHT22;9901;47.448;7.692;2022-10-16T19:28:55;17.30;99.90
19516;DHT22;9901;47.448;7.692;2022-10-16T19:31:23;17.30;99.90
19516;DHT22;9901;47.448;7.692;2022-10-16T19:33:58;17.20;99.90
19516;DHT22;9901;47.448;7.692;2022-10-16T19:36:32;17.20;99.90
19516;DHT22;9901;47.448;7.692;2022-10-16T19:39:02;17.10;99.90
19516;DHT22;9901;47.448;7.692;2022-10-16T19:41:29;17.20;99.90
19516;DHT22;9901;47.448;7.692;2022-10-16T19:43:58;17.20;99.90
19516;DHT22;9901;47.448;7.692;2022-10-16T19:46:24;17.20;99.90
19516;DHT22;9901;47.448;7.692;2022-10-16T19:49:07;17.20;99.90
19516;DHT22;9901;47.448;7.692;2022-10-16T19:51:33;17.10;99.90
19516;DHT22;9901;47.448;7.692;2022-10-16T19:54:03;17.10;99.90
19516;DHT22;9901;47.448;7.692;2022-10-16T19:56:30;17.10;99.90
19516;DHT22;9901;47.448;7.692;2022-10-16T19:58:57;17.10;99.90
19516;DHT22;9901;47.448;7.692;2022-10-16T20:01:25;17.10;99.90
19516;DHT22;9901;47.448;7.692;2022-10-16T20:03:52;17.10;99.90
19516;DHT22;9901;47.448;7.692;2022-10-16T20:06:18;17.10;99.90
19516;DHT22;9901;47.448;7.692;2022-10-16T20:08:48;17.00;99.90
19516;DHT22;9901;47.448;7.692;2022-10-16T20:11:20;17.00;99.90
19516;DHT22;9901;47.448;7.692;2022-10-16T20:13:47;17.00;99.90
19516;DHT22;9901;47.448;7.692;2022-10-16T20:16:17;16.90;99.90
19516;DHT22;9901;47.448;7.692;2022-10-16T20:18:44;16.90;99.90
19516;DHT22;9901;47.448;7.692;2022-10-16T20:21:12;16.80;99.90
19516;DHT22;9901;47.448;7.692;2022-10-16T20:23:41;16.70;99.90
19516;DHT22;9901;47.448;7.692;2022-10-16T20:26:10;16.70;99.90
19516;DHT22;9901;47.448;7.692;2022-10-16T20:28:38;16.60;99.90
19516;DHT22;9901;47.448;7.692;2022-10-16T20:31:10;16.60;99.90
19516;DHT22;9901;47.448;7.692;2022-10-16T20:33:40;16.50;99.90
19516;DHT22;9901;47.448;7.692;2022-10-16T20:36:13;16.50;99.90
19516;DHT22;9901;47.448;7.692;2022-10-16T20:38:40;16.40;99.90
19516;DHT22;9901;47.448;7.692;2022-10-16T20:41:07;16.40;99.90
19516;DHT22;9901;47.448;7.692;2022-10-16T20:43:33;16.30;99.90
19516;DHT22;9901;47.448;7.692;2022-10-16T20:46:01;16.30;99.90
19516;DHT22;9901;47.448;7.692;2022-10-16T20:48:29;16.30;99.90
19516;DHT22;9901;47.448;7.692;2022-10-16T20:50:55;16.30;99.90
19516;DHT22;9901;47.448;7.692;2022-10-16T20:53:22;16.30;99.90
19516;DHT22;9901;47.448;7.692;2022-10-16T20:55:47;16.20;99.90
19516;DHT22;9901;47.448;7.692;2022-10-16T20:58:16;16.30;99.90
19516;DHT22;9901;47.448;7.692;2022-10-16T21:00:51;16.20;99.90
19516;DHT22;9901;47.448;7.692;2022-10-16T21:03:17;16.20;99.90
19516;DHT22;9901;47.448;7.692;2022-10-16T21:05:46;16.10;99.90
19516;DHT22;9901;47.448;7.692;2022-10-16T21:08:12;16.10;99.90
19516;DHT22;9901;47.448;7.692;2022-10-16T21:10:38;16.10;99.90
19516;DHT22;9901;47.448;7.692;2022-10-16T21:13:03;16.00;99.90
19516;DHT22;9901;47.448;7.692;2022-10-16T21:15:29;16.00;99.90
19516;DHT22;9901;47.448;7.692;2022-10-16T21:17:55;16.00;99.90
19516;DHT22;9901;47.448;7.692;2022-10-16T21:20:21;15.90;99.90
19516;DHT22;9901;47.448;7.692;2022-10-16T21:22:47;15.80;99.90
19516;DHT22;9901;47.448;7.692;2022-10-16T21:25:12;15.90;99.90
19516;DHT22;9901;47.448;7.692;2022-10-16T21:27:42;15.90;99.90
19516;DHT22;9901;47.448;7.692;2022-10-16T21:30:09;15.80;99.90
19516;DHT22;9901;47.448;7.692;2022-10-16T21:32:38;15.80;99.90
19516;DHT22;9901;47.448;7.692;2022-10-16T21:35:05;15.80;99.90
19516;DHT22;9901;47.448;7.692;2022-10-16T21:37:34;15.80;99.90
19516;DHT22;9901;47.448;7.692;2022-10-16T21:39:59;15.80;99.90
19516;DHT22;9901;47.448;7.692;2022-10-16T21:42:25;15.70;99.90
19516;DHT22;9901;47.448;7.692;2022-10-16T21:44:51;15.70;99.90
19516;DHT22;9901;47.448;7.692;2022-10-16T21:47:17;15.70;99.90
19516;DHT22;9901;47.448;7.692;2022-10-16T21:49:43;15.60;99.90
19516;DHT22;9901;47.448;7.692;2022-10-16T21:52:20;15.70;99.90
19516;DHT22;9901;47.448;7.692;2022-10-16T21:54:46;15.60;99.90
19516;DHT22;9901;47.448;7.692;2022-10-16T21:57:12;15.60;99.90
19516;DHT22;9901;47.448;7.692;2022-10-16T21:59:40;15.70;99.90
19516;DHT22;9901;47.448;7.692;2022-10-16T22:02:06;15.70;99.90
19516;DHT22;9901;47.448;7.692;2022-10-16T22:04:35;15.70;99.90
19516;DHT22;9901;47.448;7.692;2022-10-16T22:07:01;15.60;99.90
19516;DHT22;9901;47.448;7.692;2022-10-16T22:09:29;15.60;99.90
19516;DHT22;9901;47.448;7.692;2022-10-16T22:11:55;15.60;99.90
19516;DHT22;9901;47.448;7.692;2022-10-16T22:14:23;15.60;99.90
19516;DHT22;9901;47.448;7.692;2022-10-16T22:16:49;15.50;99.90
19516;DHT22;9901;47.448;7.692;2022-10-16T22:19:20;15.40;99.90
19516;DHT22;9901;47.448;7.692;2022-10-16T22:21:47;15.40;99.90
19516;DHT22;9901;47.448;7.692;2022-10-16T22:24:14;15.40;99.90
19516;DHT22;9901;47.448;7.692;2022-10-16T22:26:42;15.40;99.90
19516;DHT22;9901;47.448;7.692;2022-10-16T22:29:11;15.40;99.90
19516;DHT22;9901;47.448;7.692;2022-10-16T22:31:37;15.50;99.90
19516;DHT22;9901;47.448;7.692;2022-10-16T22:34:04;15.40;99.90
19516;DHT22;9901;47.448;7.692;2022-10-16T22:36:30;15.30;99.90
19516;DHT22;9901;47.448;7.692;2022-10-16T22:38:57;15.30;99.90
19516;DHT22;9901;47.448;7.692;2022-10-16T22:41:23;15.20;99.90
19516;DHT22;9901;47.448;7.692;2022-10-16T22:43:51;15.20;99.90
19516;DHT22;9901;47.448;7.692;2022-10-16T22:46:20;15.10;99.90
19516;DHT22;9901;47.448;7.692;2022-10-16T22:48:49;15.00;99.90
19516;DHT22;9901;47.448;7.692;2022-10-16T22:51:15;15.00;99.90
19516;DHT22;9901;47.448;7.692;2022-10-16T22:53:41;15.00;99.90
19516;DHT22;9901;47.448;7.692;2022-10-16T22:56:09;15.00;99.90
19516;DHT22;9901;47.448;7.692;2022-10-16T22:58:35;15.00;99.90
19516;DHT22;9901;47.448;7.692;2022-10-16T23:03:35;15.00;99.90
19516;DHT22;9901;47.448;7.692;2022-10-16T23:06:04;15.00;99.90
19516;DHT22;9901;47.448;7.692;2022-10-16T23:08:30;15.00;99.90
19516;DHT22;9901;47.448;7.692;2022-10-16T23:10:56;15.00;99.90
19516;DHT22;9901;47.448;7.692;2022-10-16T23:13:25;14.90;99.90
19516;DHT22;9901;47.448;7.692;2022-10-16T23:15:51;14.80;99.90
19516;DHT22;9901;47.448;7.692;2022-10-16T23:18:19;14.80;99.90
19516;DHT22;9901;47.448;7.692;2022-10-16T23:20:45;14.80;99.90
19516;DHT22;9901;47.448;7.692;2022-10-16T23:25:44;14.70;99.90
19516;DHT22;9901;47.448;7.692;2022-10-16T23:28:11;14.70;99.90
19516;DHT22;9901;47.448;7.692;2022-10-16T23:30:38;14.70;99.90
19516;DHT22;9901;47.448;7.692;2022-10-16T23:33:03;14.70;99.90
19516;DHT22;9901;47.448;7.692;2022-10-16T23:35:29;14.70;99.90
19516;DHT22;9901;47.448;7.692;2022-10-16T23:37:57;14.60;99.90
19516;DHT22;9901;47.448;7.692;2022-10-16T23:40:25;14.60;99.90
19516;DHT22;9901;47.448;7.692;2022-10-16T23:42:51;14.60;99.90
19516;DHT22;9901;47.448;7.692;2022-10-16T23:45:17;14.60;99.90
19516;DHT22;9901;47.448;7.692;2022-10-16T23:47:42;14.60;99.90
19516;DHT22;9901;47.448;7.692;2022-10-16T23:50:08;14.60;99.90
19516;DHT22;9901;47.448;7.692;2022-10-16T23:52:34;14.50;99.90
19516;DHT22;9901;47.448;7.692;2022-10-16T23:55:00;14.50;99.90
19516;DHT22;9901;47.448;7.692;2022-10-16T23:57:26;14.50;99.90
19516;DHT22;9901;47.448;7.692;2022-10-16T23:59:55;14.40;99.90
